createdAt,value
2022-10-05T00:01:29.929Z,13.00
2022-10-05T00:04:07.122Z,13.00
2022-10-05T00:06:35.851Z,13.00
2022-10-05T00:09:13.592Z,13.00
2022-10-05T00:11:42.588Z,12.90
2022-10-05T00:14:17.554Z,12.90
2022-10-05T00:16:47.153Z,12.90
2022-10-05T00:19:22.575Z,12.90
2022-10-05T00:21:51.403Z,12.90
2022-10-05T00:24:21.241Z,12.90
2022-10-05T00:26:54.205Z,12.90
2022-10-05T00:29:26.593Z,12.80
2022-10-05T00:31:55.492Z,12.80
2022-10-05T00:34:28.006Z,12.80
2022-10-05T00:36:56.890Z,12.80
2022-10-05T00:39:25.748Z,12.80
2022-10-05T00:42:08.386Z,12.80
2022-10-05T00:44:41.962Z,12.90
2022-10-05T00:47:29.265Z,12.90
2022-10-05T00:50:26.695Z,12.90
2022-10-05T00:53:01.541Z,12.90
2022-10-05T00:55:44.557Z,12.90
2022-10-05T00:58:25.068Z,12.90
2022-10-05T01:01:03.120Z,12.90
2022-10-05T01:03:45.031Z,12.90
2022-10-05T01:06:23.482Z,12.90
2022-10-05T01:09:01.551Z,12.80
2022-10-05T01:11:35.230Z,12.80
2022-10-05T01:14:13.482Z,12.80
2022-10-05T01:16:52.447Z,12.80
2022-10-05T01:19:40.370Z,12.80
2022-10-05T01:22:23.095Z,12.70
2022-10-05T01:25:03.920Z,12.70
2022-10-05T01:27:42.473Z,12.70
2022-10-05T01:30:14.884Z,12.70
2022-10-05T01:32:50.674Z,12.70
2022-10-05T01:35:30.795Z,12.70
2022-10-05T01:38:13.381Z,12.70
2022-10-05T01:40:57.412Z,12.70
2022-10-05T01:43:35.292Z,12.70
2022-10-05T01:46:15.763Z,12.70
2022-10-05T01:48:53.743Z,12.70
2022-10-05T01:51:33.157Z,12.70
2022-10-05T01:54:14.758Z,12.70
2022-10-05T01:56:51.573Z,12.70
2022-10-05T01:59:31.369Z,12.70
2022-10-05T02:02:04.884Z,12.70
2022-10-05T02:05:00.893Z,12.70
2022-10-05T02:07:33.540Z,12.70
2022-10-05T02:10:06.153Z,12.70
2022-10-05T02:12:39.306Z,12.70
2022-10-05T02:15:15.735Z,12.70
2022-10-05T02:17:49.339Z,12.70
2022-10-05T02:20:24.514Z,12.70
2022-10-05T02:22:56.506Z,12.70
2022-10-05T02:25:30.524Z,12.70
2022-10-05T02:28:05.358Z,12.70
2022-10-05T02:30:42.375Z,12.70
2022-10-05T02:33:18.533Z,12.70
2022-10-05T02:35:47.995Z,12.70
2022-10-05T02:38:27.360Z,12.70
2022-10-05T02:41:06.587Z,12.70
2022-10-05T02:43:50.545Z,12.70
2022-10-05T02:46:31.702Z,12.70
2022-10-05T02:49:12.340Z,12.70
2022-10-05T02:51:49.821Z,12.60
2022-10-05T02:54:33.530Z,12.60
2022-10-05T02:57:08.288Z,12.60
2022-10-05T02:59:41.558Z,12.60
2022-10-05T03:02:19.810Z,12.60
2022-10-05T03:04:58.180Z,12.60
2022-10-05T03:07:33.490Z,12.60
2022-10-05T03:10:10.648Z,12.60
2022-10-05T03:12:48.622Z,12.60
2022-10-05T03:15:32.093Z,12.60
2022-10-05T03:18:14.008Z,12.60
2022-10-05T03:20:49.853Z,12.60
2022-10-05T03:23:28.590Z,12.60
2022-10-05T03:26:19.014Z,12.60
2022-10-05T03:28:57.749Z,12.60
2022-10-05T03:31:33.192Z,12.60
2022-10-05T03:34:09.427Z,12.60
2022-10-05T03:36:48.141Z,12.60
2022-10-05T03:39:25.052Z,12.60
2022-10-05T03:42:01.592Z,12.60
2022-10-05T03:44:43.732Z,12.60
2022-10-05T03:47:22.159Z,12.60
2022-10-05T03:50:12.925Z,12.60
2022-10-05T03:52:46.673Z,12.60
2022-10-05T03:55:22.830Z,12.60
2022-10-05T03:57:57.473Z,12.60
2022-10-05T04:00:27.657Z,12.60
2022-10-05T04:03:05.929Z,12.60
2022-10-05T04:05:40.267Z,12.60
2022-10-05T04:08:14.270Z,12.60
2022-10-05T04:10:47.621Z,12.60
2022-10-05T04:13:24.301Z,12.60
2022-10-05T04:16:00.835Z,12.60
2022-10-05T04:18:34.791Z,12.60
2022-10-05T04:21:11.623Z,12.60
2022-10-05T04:23:48.911Z,12.60
2022-10-05T04:26:23.420Z,12.60
2022-10-05T04:28:59.682Z,12.60
2022-10-05T04:31:43.123Z,12.60
2022-10-05T04:34:48.311Z,12.60
2022-10-05T04:37:24.678Z,12.60
2022-10-05T04:40:09.597Z,12.60
2022-10-05T04:42:45.499Z,12.60
2022-10-05T04:45:25.347Z,12.50
2022-10-05T04:48:19.350Z,12.60
2022-10-05T04:51:00.363Z,12.50
2022-10-05T04:53:36.716Z,12.50
2022-10-05T04:56:12.543Z,12.50
2022-10-05T04:58:57.062Z,12.40
2022-10-05T05:01:41.570Z,12.40
2022-10-05T05:04:33.268Z,12.40
2022-10-05T05:07:20.345Z,12.40
2022-10-05T05:10:17.989Z,12.40
2022-10-05T05:12:57.077Z,12.40
2022-10-05T05:15:38.947Z,12.30
2022-10-05T05:18:45.448Z,12.30
2022-10-05T05:21:25.770Z,12.30
2022-10-05T05:24:02.017Z,12.30
2022-10-05T05:26:44.998Z,12.30
2022-10-05T05:29:22.018Z,12.30
2022-10-05T05:31:58.654Z,12.30
2022-10-05T05:34:39.975Z,12.30
2022-10-05T05:37:20.724Z,12.30
2022-10-05T05:39:55.590Z,12.30
2022-10-05T05:42:39.075Z,12.30
2022-10-05T05:45:18.515Z,12.30
2022-10-05T05:47:54.001Z,12.30
2022-10-05T05:50:40.484Z,12.30
2022-10-05T05:53:16.588Z,12.30
2022-10-05T05:55:48.807Z,12.30
2022-10-05T05:58:24.635Z,12.30
2022-10-05T06:00:58.015Z,12.40
2022-10-05T06:03:34.537Z,12.40
2022-10-05T06:06:07.521Z,12.40
2022-10-05T06:08:41.418Z,12.40
2022-10-05T06:11:23.709Z,12.40
2022-10-05T06:13:55.584Z,12.40
2022-10-05T06:16:32.047Z,12.40
2022-10-05T06:19:05.710Z,12.40
2022-10-05T06:21:39.695Z,12.50
2022-10-05T06:24:17.330Z,12.50
2022-10-05T06:27:12.368Z,12.50
2022-10-05T06:29:57.073Z,12.50
2022-10-05T06:32:31.126Z,12.50
2022-10-05T06:35:11.751Z,12.60
2022-10-05T06:38:08.896Z,12.60
2022-10-05T06:40:50.711Z,12.60
2022-10-05T06:43:39.075Z,12.70
2022-10-05T06:46:24.007Z,12.70
2022-10-05T06:49:26.434Z,12.80
2022-10-05T06:52:18.539Z,12.90
2022-10-05T06:54:57.962Z,12.90
2022-10-05T06:57:43.858Z,12.90
2022-10-05T07:00:24.838Z,13.00
2022-10-05T07:03:04.489Z,13.10
2022-10-05T07:06:07.579Z,13.10
2022-10-05T07:08:56.727Z,13.20
2022-10-05T07:11:43.310Z,13.20
2022-10-05T07:14:29.160Z,13.20
2022-10-05T07:17:22.876Z,13.30
2022-10-05T07:20:00.975Z,13.50
2022-10-05T07:22:49.209Z,13.80
2022-10-05T07:25:22.907Z,14.20
2022-10-05T07:27:57.437Z,14.70
2022-10-05T07:30:26.930Z,15.20
2022-10-05T07:33:00.754Z,15.70
2022-10-05T07:35:59.358Z,16.20
2022-10-05T07:38:34.381Z,16.70
2022-10-05T07:41:07.549Z,17.20
2022-10-05T07:44:00.881Z,17.70
2022-10-05T07:46:43.721Z,18.20
2022-10-05T07:49:19.223Z,18.70
2022-10-05T07:51:53.805Z,19.20
2022-10-05T07:54:28.528Z,19.60
2022-10-05T07:57:07.196Z,20.00
2022-10-05T07:59:44.821Z,20.40
2022-10-05T08:02:23.729Z,20.70
2022-10-05T08:04:58.178Z,21.00
2022-10-05T08:07:31.072Z,21.20
2022-10-05T08:10:14.925Z,21.40
2022-10-05T08:12:54.953Z,21.60
2022-10-05T08:15:27.452Z,21.60
2022-10-05T08:18:00.353Z,21.60
2022-10-05T08:20:40.564Z,21.60
2022-10-05T08:23:20.966Z,21.50
2022-10-05T08:26:00.390Z,21.50
2022-10-05T08:28:35.164Z,21.40
2022-10-05T08:31:17.939Z,21.40
2022-10-05T08:33:55.647Z,21.30
2022-10-05T08:36:34.807Z,21.20
2022-10-05T08:39:12.406Z,21.00
2022-10-05T08:42:14.830Z,20.70
2022-10-05T08:45:09.599Z,20.30
2022-10-05T08:48:11.466Z,20.00
2022-10-05T08:51:03.120Z,19.70
2022-10-05T08:53:59.084Z,19.40
2022-10-05T08:56:41.836Z,19.20
2022-10-05T08:59:36.580Z,19.00
2022-10-05T09:02:21.927Z,18.80
2022-10-05T09:05:10.859Z,18.60
2022-10-05T09:07:58.526Z,18.60
2022-10-05T09:10:59.273Z,18.50
2022-10-05T09:13:49.813Z,18.40
2022-10-05T09:16:37.262Z,18.40
2022-10-05T09:19:35.127Z,18.40
2022-10-05T09:22:16.304Z,18.40
2022-10-05T09:24:57.193Z,18.40
2022-10-05T09:27:36.611Z,18.40
2022-10-05T09:30:20.738Z,18.40
2022-10-05T09:33:25.893Z,18.50
2022-10-05T09:36:18.895Z,18.40
2022-10-05T09:39:23.191Z,18.50
2022-10-05T09:42:21.720Z,18.60
2022-10-05T09:45:21.828Z,18.60
2022-10-05T09:48:07.638Z,18.70
2022-10-05T09:51:11.396Z,18.70
2022-10-05T09:54:08.179Z,18.80
2022-10-05T09:57:18.904Z,18.80
2022-10-05T10:00:24.111Z,18.90
2022-10-05T10:03:18.079Z,19.00
2022-10-05T10:06:12.715Z,19.10
2022-10-05T10:08:53.733Z,19.10
2022-10-05T10:11:35.418Z,19.20
2022-10-05T10:14:24.436Z,19.20
2022-10-05T10:17:14.756Z,19.20
2022-10-05T10:20:14.575Z,19.30
2022-10-05T10:23:13.363Z,19.40
2022-10-05T10:26:12.792Z,19.50
2022-10-05T10:29:01.898Z,19.60
2022-10-05T10:31:51.583Z,19.60
2022-10-05T10:34:43.851Z,19.70
2022-10-05T10:37:33.649Z,19.70
2022-10-05T10:40:23.354Z,19.80
2022-10-05T10:43:12.885Z,19.80
2022-10-05T10:45:54.675Z,19.90
2022-10-05T10:48:55.640Z,19.90
2022-10-05T10:51:53.497Z,20.10
2022-10-05T10:55:05.374Z,20.20
2022-10-05T10:57:50.000Z,20.40
2022-10-05T11:00:34.824Z,20.50
2022-10-05T11:03:35.812Z,20.60
2022-10-05T11:06:22.381Z,20.70
2022-10-05T11:09:13.619Z,20.80
2022-10-05T11:12:21.927Z,20.90
2022-10-05T11:15:02.377Z,21.00
2022-10-05T11:18:02.266Z,21.00
2022-10-05T11:21:16.529Z,21.20
2022-10-05T11:24:38.767Z,21.30
2022-10-05T11:27:37.626Z,21.40
2022-10-05T11:30:51.396Z,21.50
2022-10-05T11:33:59.470Z,21.70
2022-10-05T11:36:47.511Z,21.80
2022-10-05T11:39:36.758Z,22.00
2022-10-05T11:42:51.450Z,22.10
2022-10-05T11:45:23.725Z,22.30
2022-10-05T11:48:40.496Z,22.50
2022-10-05T11:51:34.109Z,22.80
2022-10-05T11:54:58.659Z,23.00
2022-10-05T11:57:34.254Z,23.30
2022-10-05T12:00:12.366Z,23.60
2022-10-05T12:02:53.975Z,23.80
2022-10-05T12:05:28.199Z,24.10
2022-10-05T12:08:11.962Z,24.30
2022-10-05T12:10:51.263Z,24.60
2022-10-05T12:13:33.659Z,24.90
2022-10-05T12:16:08.676Z,25.10
2022-10-05T12:18:51.014Z,25.40
2022-10-05T12:21:29.899Z,25.70
2022-10-05T12:24:03.386Z,25.90
2022-10-05T12:26:37.824Z,26.10
2022-10-05T12:29:13.933Z,26.30
2022-10-05T12:31:53.412Z,26.60
2022-10-05T12:34:35.345Z,26.70
2022-10-05T12:37:11.698Z,26.70
2022-10-05T12:39:45.664Z,26.60
2022-10-05T12:42:29.130Z,26.50
2022-10-05T12:45:16.601Z,26.20
2022-10-05T12:48:02.919Z,26.00
2022-10-05T12:50:36.691Z,25.80
2022-10-05T12:53:24.466Z,25.50
2022-10-05T12:56:02.498Z,25.20
2022-10-05T12:58:41.794Z,25.00
2022-10-05T13:01:21.938Z,24.80
2022-10-05T13:03:55.830Z,24.50
2022-10-05T13:06:34.523Z,24.30
2022-10-05T13:09:10.176Z,24.10
2022-10-05T13:11:46.660Z,23.90
2022-10-05T13:14:35.238Z,23.80
2022-10-05T13:17:11.281Z,23.70
2022-10-05T13:19:45.542Z,23.60
2022-10-05T13:22:28.387Z,23.40
2022-10-05T13:25:08.742Z,23.30
2022-10-05T13:27:45.678Z,23.20
2022-10-05T13:30:18.101Z,23.10
2022-10-05T13:32:49.187Z,23.00
2022-10-05T13:35:30.680Z,22.90
2022-10-05T13:38:06.803Z,22.80
2022-10-05T13:40:40.700Z,22.70
2022-10-05T13:43:23.847Z,22.70
2022-10-05T13:46:01.035Z,22.60
2022-10-05T13:48:53.230Z,22.50
2022-10-05T13:51:25.208Z,22.40
2022-10-05T13:54:02.161Z,22.40
2022-10-05T13:56:34.090Z,22.30
2022-10-05T13:59:25.910Z,22.30
2022-10-05T14:01:59.622Z,22.20
2022-10-05T14:04:31.084Z,22.10
2022-10-05T14:07:21.583Z,22.00
2022-10-05T14:09:50.854Z,22.00
2022-10-05T14:12:22.351Z,22.00
2022-10-05T14:14:53.372Z,21.90
2022-10-05T14:17:41.790Z,21.90
2022-10-05T14:20:21.141Z,21.90
2022-10-05T14:22:53.979Z,21.80
2022-10-05T14:25:23.328Z,21.80
2022-10-05T14:28:02.039Z,21.80
2022-10-05T14:30:32.561Z,21.70
2022-10-05T14:33:16.956Z,21.70
2022-10-05T14:35:50.771Z,21.70
2022-10-05T14:38:22.637Z,21.70
2022-10-05T14:41:17.674Z,21.70
2022-10-05T14:43:55.975Z,21.70
2022-10-05T14:46:29.119Z,21.70
2022-10-05T14:49:22.134Z,21.70
2022-10-05T14:51:53.575Z,21.70
2022-10-05T14:54:28.515Z,21.60
2022-10-05T14:57:10.594Z,21.60
2022-10-05T15:00:10.700Z,21.60
2022-10-05T15:03:00.513Z,21.60
2022-10-05T15:05:39.000Z,21.50
2022-10-05T15:08:23.862Z,21.50
2022-10-05T15:10:57.805Z,21.50
2022-10-05T15:13:32.017Z,21.40
2022-10-05T15:16:07.430Z,21.40
2022-10-05T15:18:43.941Z,21.40
2022-10-05T15:21:33.468Z,21.40
2022-10-05T15:24:06.019Z,21.40
2022-10-05T15:26:50.547Z,21.40
2022-10-05T15:29:32.558Z,21.40
2022-10-05T15:32:10.998Z,21.30
2022-10-05T15:34:58.395Z,21.30
2022-10-05T15:37:33.941Z,21.30
2022-10-05T15:40:05.744Z,21.20
2022-10-05T15:42:38.664Z,21.20
2022-10-05T15:45:19.966Z,21.20
2022-10-05T15:47:57.191Z,21.20
2022-10-05T15:50:29.634Z,21.10
2022-10-05T15:53:09.503Z,21.10
2022-10-05T15:55:47.067Z,21.10
2022-10-05T15:58:31.758Z,21.00
2022-10-05T16:01:08.343Z,21.00
2022-10-05T16:03:47.352Z,21.00
2022-10-05T16:06:54.016Z,20.90
2022-10-05T16:09:36.660Z,20.90
2022-10-05T16:12:20.137Z,20.90
2022-10-05T16:15:01.331Z,20.80
2022-10-05T16:17:42.034Z,20.80
2022-10-05T16:20:26.119Z,20.80
2022-10-05T16:23:03.185Z,20.70
2022-10-05T16:25:45.375Z,20.70
2022-10-05T16:28:28.693Z,20.60
2022-10-05T16:31:03.810Z,20.60
2022-10-05T16:33:46.749Z,20.50
2022-10-05T16:36:23.687Z,20.50
2022-10-05T16:39:02.065Z,20.40
2022-10-05T16:41:39.402Z,20.40
2022-10-05T16:44:18.143Z,20.40
2022-10-05T16:46:53.604Z,20.30
2022-10-05T16:49:34.374Z,20.30
2022-10-05T16:52:06.596Z,20.20
2022-10-05T16:54:44.235Z,20.20
2022-10-05T16:57:22.076Z,20.20
2022-10-05T17:00:21.883Z,20.10
2022-10-05T17:03:11.325Z,20.10
2022-10-05T17:06:05.114Z,20.00
2022-10-05T17:08:56.371Z,19.90
2022-10-05T17:11:35.879Z,19.90
2022-10-05T17:14:24.554Z,19.80
2022-10-05T17:17:16.009Z,19.70
2022-10-05T17:19:53.135Z,19.60
2022-10-05T17:22:27.931Z,19.50
2022-10-05T17:25:06.342Z,19.50
2022-10-05T17:27:51.140Z,19.40
2022-10-05T17:30:50.299Z,19.40
2022-10-05T17:33:23.044Z,19.30
2022-10-05T17:36:12.764Z,19.20
2022-10-05T17:38:49.615Z,19.10
2022-10-05T17:41:22.267Z,19.10
2022-10-05T17:44:32.127Z,19.00
2022-10-05T17:47:04.395Z,19.00
2022-10-05T17:50:15.804Z,18.90
2022-10-05T17:53:03.059Z,18.90
2022-10-05T17:55:45.964Z,18.80
2022-10-05T17:59:00.708Z,18.70
2022-10-05T18:01:35.474Z,18.70
2022-10-05T18:04:33.539Z,18.60
2022-10-05T18:07:18.574Z,18.60
2022-10-05T18:10:18.512Z,18.50
2022-10-05T18:12:50.554Z,18.50
2022-10-05T18:15:48.597Z,18.50
2022-10-05T18:18:57.420Z,18.50
2022-10-05T18:21:37.708Z,18.40
2022-10-05T18:24:28.188Z,18.40
2022-10-05T18:27:07.995Z,18.40
2022-10-05T18:30:06.198Z,18.40
2022-10-05T18:33:03.964Z,18.40
2022-10-05T18:35:46.435Z,18.30
2022-10-05T18:38:28.968Z,18.30
2022-10-05T18:41:04.456Z,18.30
2022-10-05T18:43:40.696Z,18.30
2022-10-05T18:46:25.874Z,18.30
2022-10-05T18:49:11.890Z,18.30
2022-10-05T18:51:51.666Z,18.20
2022-10-05T18:54:37.084Z,18.30
2022-10-05T18:57:34.933Z,18.20
2022-10-05T19:00:12.075Z,18.30
2022-10-05T19:02:45.671Z,18.30
2022-10-05T19:05:46.377Z,18.20
2022-10-05T19:08:23.443Z,18.30
2022-10-05T19:10:58.346Z,18.20
2022-10-05T19:13:38.712Z,18.20
2022-10-05T19:16:22.474Z,18.30
2022-10-05T19:19:04.969Z,18.20
2022-10-05T19:21:42.363Z,18.20
2022-10-05T19:24:35.261Z,18.20
2022-10-05T19:27:12.343Z,18.20
2022-10-05T19:29:54.328Z,18.20
2022-10-05T19:32:31.400Z,18.20
2022-10-05T19:35:13.528Z,18.10
2022-10-05T19:37:53.878Z,18.10
2022-10-05T19:40:31.363Z,18.10
2022-10-05T19:43:24.067Z,18.10
2022-10-05T19:46:03.522Z,18.10
2022-10-05T19:48:40.428Z,18.10
2022-10-05T19:51:15.892Z,18.10
2022-10-05T19:53:50.018Z,18.00
2022-10-05T19:56:22.046Z,18.00
2022-10-05T19:58:56.306Z,18.00
2022-10-05T20:01:30.825Z,18.00
2022-10-05T20:04:00.088Z,18.00
2022-10-05T20:06:31.166Z,18.00
2022-10-05T20:09:02.697Z,18.00
2022-10-05T20:11:34.745Z,18.00
2022-10-05T20:14:21.426Z,18.00
2022-10-05T20:17:43.904Z,17.90
2022-10-05T20:20:26.187Z,17.90
2022-10-05T20:23:25.052Z,17.90
2022-10-05T20:26:12.491Z,17.90
2022-10-05T20:28:42.982Z,17.90
2022-10-05T20:31:14.473Z,17.80
2022-10-05T20:33:43.500Z,17.80
2022-10-05T20:36:12.818Z,17.80
2022-10-05T20:38:43.446Z,17.70
2022-10-05T20:41:12.328Z,17.70
2022-10-05T20:43:41.321Z,17.70
2022-10-05T20:46:10.292Z,17.60
2022-10-05T20:48:40.929Z,17.60
2022-10-05T20:51:10.021Z,17.60
2022-10-05T20:53:38.991Z,17.50
2022-10-05T20:56:08.255Z,17.50
2022-10-05T20:58:37.647Z,17.50
2022-10-05T21:01:20.005Z,17.50
2022-10-05T21:03:51.471Z,17.40
2022-10-05T21:06:21.953Z,17.50
2022-10-05T21:08:52.043Z,17.50
2022-10-05T21:11:20.997Z,17.40
2022-10-05T21:13:51.099Z,17.40
2022-10-05T21:16:20.687Z,17.30
2022-10-05T21:18:51.744Z,17.40
2022-10-05T21:21:20.977Z,17.30
2022-10-05T21:23:51.225Z,17.30
2022-10-05T21:26:20.245Z,17.20
2022-10-05T21:28:49.365Z,17.20
2022-10-05T21:31:18.725Z,17.10
2022-10-05T21:33:47.817Z,17.10
2022-10-05T21:36:22.467Z,17.10
2022-10-05T21:38:54.995Z,17.00
2022-10-05T21:41:24.276Z,17.00
2022-10-05T21:43:53.374Z,17.00
2022-10-05T21:46:25.837Z,17.00
2022-10-05T21:48:55.824Z,16.90
2022-10-05T21:51:27.658Z,16.90
2022-10-05T21:54:01.630Z,16.80
2022-10-05T21:56:34.778Z,16.80
2022-10-05T21:59:06.022Z,16.80
2022-10-05T22:01:36.080Z,16.80
2022-10-05T22:04:05.683Z,16.70
2022-10-05T22:06:36.581Z,16.70
2022-10-05T22:09:06.289Z,16.60
2022-10-05T22:11:35.405Z,16.60
2022-10-05T22:14:04.505Z,16.60
2022-10-05T22:16:36.521Z,16.50
2022-10-05T22:19:07.660Z,16.50
2022-10-05T22:21:41.515Z,16.50
2022-10-05T22:24:11.298Z,16.40
2022-10-05T22:26:40.864Z,16.40
2022-10-05T22:29:09.790Z,16.40
2022-10-05T22:31:39.568Z,16.40
2022-10-05T22:34:08.498Z,16.30
2022-10-05T22:36:38.724Z,16.30
2022-10-05T22:39:07.840Z,16.30
2022-10-05T22:41:36.715Z,16.20
2022-10-05T22:44:06.682Z,16.20
2022-10-05T22:46:35.861Z,16.20
2022-10-05T22:49:04.607Z,16.10
2022-10-05T22:51:33.440Z,16.10
2022-10-05T22:54:03.564Z,16.10
2022-10-05T22:56:32.765Z,16.10
2022-10-05T22:59:01.453Z,16.10
2022-10-05T23:01:30.239Z,16.00
2022-10-05T23:04:00.164Z,16.00
2022-10-05T23:06:29.124Z,16.00
2022-10-05T23:08:57.981Z,16.00
2022-10-05T23:11:30.219Z,15.90
2022-10-05T23:14:00.515Z,15.90
2022-10-05T23:16:29.853Z,15.90
2022-10-05T23:18:59.138Z,15.90
2022-10-05T23:21:30.323Z,15.90
2022-10-05T23:23:59.187Z,15.90
2022-10-05T23:26:29.206Z,15.90
2022-10-05T23:28:58.231Z,15.90
2022-10-05T23:31:30.683Z,15.80
2022-10-05T23:34:00.092Z,15.80
2022-10-05T23:36:32.240Z,15.80
2022-10-05T23:39:01.174Z,15.80
2022-10-05T23:41:31.202Z,15.80
2022-10-05T23:43:59.914Z,15.80
2022-10-05T23:46:28.876Z,15.80
2022-10-05T23:48:57.837Z,15.80
2022-10-05T23:51:26.738Z,15.80
2022-10-05T23:53:55.815Z,15.80
2022-10-05T23:56:24.917Z,15.80
2022-10-05T23:58:54.960Z,15.80
